createdAt,value
2018-02-22T00:01:18.910Z,87.68
2018-02-22T00:03:48.424Z,87.71
2018-02-22T00:06:17.514Z,88.66
2018-02-22T00:08:46.650Z,87.93
2018-02-22T00:11:15.809Z,88.39
2018-02-22T00:13:44.678Z,88.96
2018-02-22T00:16:13.898Z,88.90
2018-02-22T00:18:43.277Z,88.83
2018-02-22T00:21:13.063Z,87.81
2018-02-22T00:23:42.739Z,88.97
2018-02-22T00:26:11.853Z,89.13
2018-02-22T00:28:41.034Z,88.96
2018-02-22T00:31:10.241Z,89.09
2018-02-22T00:33:39.246Z,89.25
2018-02-22T00:36:08.923Z,88.54
2018-02-22T00:38:38.083Z,88.75
2018-02-22T00:41:07.285Z,89.44
2018-02-22T00:43:36.504Z,89.87
2018-02-22T00:46:05.482Z,89.56
2018-02-22T00:48:34.442Z,89.80
2018-02-22T00:51:03.477Z,90.18
2018-02-22T00:53:32.661Z,90.16
2018-02-22T00:56:01.672Z,90.31
2018-02-22T00:58:31.057Z,90.99
2018-02-22T01:01:00.210Z,91.33
2018-02-22T01:03:29.350Z,91.18
2018-02-22T01:05:58.514Z,91.04
2018-02-22T01:08:27.559Z,91.05
2018-02-22T01:10:56.925Z,90.88
2018-02-22T01:13:26.225Z,91.08
2018-02-22T01:15:55.318Z,90.73
2018-02-22T01:18:24.270Z,90.66
2018-02-22T01:20:53.779Z,90.75
2018-02-22T01:23:22.793Z,90.37
2018-02-22T01:25:52.044Z,90.79
2018-02-22T01:28:20.921Z,90.07
2018-02-22T01:30:50.372Z,90.74
2018-02-22T01:33:19.444Z,90.51
2018-02-22T01:35:48.626Z,90.87
2018-02-22T01:38:17.639Z,91.32
2018-02-22T01:40:47.152Z,90.80
2018-02-22T01:43:16.525Z,90.92
2018-02-22T01:45:45.789Z,91.33
2018-02-22T01:48:15.150Z,91.83
2018-02-22T01:50:51.229Z,90.56
2018-02-22T01:53:20.266Z,90.89
2018-02-22T01:55:49.207Z,90.70
2018-02-22T01:58:18.197Z,91.33
2018-02-22T02:00:47.545Z,90.59
2018-02-22T02:03:17.072Z,90.73
2018-02-22T02:05:46.234Z,90.41
2018-02-22T02:08:15.222Z,90.15
2018-02-22T02:10:44.477Z,90.05
2018-02-22T02:13:13.554Z,90.34
2018-02-22T02:15:42.683Z,90.41
2018-02-22T02:18:11.929Z,89.67
2018-02-22T02:20:41.076Z,89.98
2018-02-22T02:23:10.218Z,90.13
2018-02-22T02:25:39.554Z,90.27
2018-02-22T02:28:09.160Z,90.51
2018-02-22T02:30:38.217Z,90.72
2018-02-22T02:33:07.441Z,90.56
2018-02-22T02:35:36.542Z,90.78
2018-02-22T02:38:05.440Z,90.56
2018-02-22T02:40:34.722Z,89.95
2018-02-22T02:43:03.793Z,90.04
2018-02-22T02:45:33.263Z,90.23
2018-02-22T02:48:02.672Z,90.82
2018-02-22T02:50:31.943Z,89.86
2018-02-22T02:53:00.990Z,90.64
2018-02-22T02:55:30.194Z,91.63
2018-02-22T02:57:59.543Z,91.33
2018-02-22T03:00:28.674Z,91.50
2018-02-22T03:02:58.138Z,91.92
2018-02-22T03:05:27.247Z,91.59
2018-02-22T03:07:56.515Z,91.14
2018-02-22T03:10:25.990Z,91.55
2018-02-22T03:12:55.058Z,91.42
2018-02-22T03:15:24.365Z,92.12
2018-02-22T03:17:53.351Z,91.65
2018-02-22T03:20:22.403Z,92.11
2018-02-22T03:22:51.746Z,92.18
2018-02-22T03:25:21.258Z,91.34
2018-02-22T03:27:50.482Z,92.31
2018-02-22T03:30:19.886Z,92.01
2018-02-22T03:32:48.729Z,92.05
2018-02-22T03:35:17.747Z,91.59
2018-02-22T03:37:46.641Z,92.42
2018-02-22T03:40:15.537Z,92.43
2018-02-22T03:42:44.828Z,93.04
2018-02-22T03:45:13.862Z,92.65
2018-02-22T03:47:43.531Z,92.53
2018-02-22T03:50:12.562Z,92.47
2018-02-22T03:52:41.639Z,92.89
2018-02-22T03:55:10.758Z,93.15
2018-02-22T03:57:40.030Z,93.34
2018-02-22T04:00:09.301Z,94.06
2018-02-22T04:02:39.022Z,93.53
2018-02-22T04:05:08.320Z,93.99
2018-02-22T04:07:37.761Z,94.06
2018-02-22T04:10:07.033Z,93.76
2018-02-22T04:12:36.261Z,93.83
2018-02-22T04:15:05.631Z,93.92
2018-02-22T04:17:34.669Z,93.59
2018-02-22T04:20:03.858Z,93.99
2018-02-22T04:22:33.049Z,94.28
2018-02-22T04:25:02.787Z,94.34
2018-02-22T04:27:32.271Z,93.71
2018-02-22T04:30:01.686Z,93.43
2018-02-22T04:32:30.918Z,93.78
2018-02-22T04:35:00.169Z,93.43
2018-02-22T04:37:29.530Z,93.60
2018-02-22T04:39:58.806Z,93.79
2018-02-22T04:42:28.182Z,93.67
2018-02-22T04:44:57.201Z,94.57
2018-02-22T04:47:26.120Z,94.21
2018-02-22T04:49:55.390Z,93.80
2018-02-22T04:52:24.486Z,94.34
2018-02-22T04:54:53.993Z,92.91
2018-02-22T04:57:23.533Z,93.08
2018-02-22T04:59:52.416Z,94.27
2018-02-22T05:02:21.985Z,94.40
2018-02-22T05:04:51.233Z,94.05
2018-02-22T05:07:20.641Z,94.01
2018-02-22T05:09:50.125Z,94.63
2018-02-22T05:12:18.938Z,93.94
2018-02-22T05:14:48.738Z,94.27
2018-02-22T05:17:18.005Z,93.81
2018-02-22T05:19:47.091Z,93.63
2018-02-22T05:22:15.946Z,94.02
2018-02-22T05:24:45.438Z,94.73
2018-02-22T05:27:14.870Z,95.02
2018-02-22T05:29:43.850Z,94.68
2018-02-22T05:32:13.470Z,95.84
2018-02-22T05:34:42.380Z,95.48
2018-02-22T05:37:12.021Z,94.76
2018-02-22T05:39:41.365Z,94.68
2018-02-22T05:42:10.286Z,95.29
2018-02-22T05:44:39.514Z,95.07
2018-02-22T05:47:08.694Z,96.13
2018-02-22T05:49:37.830Z,95.70
2018-02-22T05:52:07.018Z,95.01
2018-02-22T05:54:36.111Z,95.83
2018-02-22T05:57:05.414Z,96.12
2018-02-22T05:59:34.577Z,95.32
2018-02-22T06:02:03.763Z,94.63
2018-02-22T06:04:33.086Z,95.43
2018-02-22T06:07:02.167Z,95.30
2018-02-22T06:09:31.441Z,94.34
2018-02-22T06:12:00.780Z,94.88
2018-02-22T06:14:30.049Z,94.87
2018-02-22T06:16:59.330Z,94.41
2018-02-22T06:19:28.857Z,95.44
2018-02-22T06:21:57.729Z,95.55
2018-02-22T06:24:26.974Z,95.18
2018-02-22T06:26:56.006Z,94.68
2018-02-22T06:29:24.906Z,94.91
2018-02-22T06:31:54.065Z,94.10
2018-02-22T06:34:23.380Z,94.33
2018-02-22T06:36:52.482Z,94.66
2018-02-22T06:39:21.884Z,95.72
2018-02-22T06:41:51.193Z,94.80
2018-02-22T06:44:20.315Z,94.67
2018-02-22T06:46:49.614Z,94.04
2018-02-22T06:49:18.904Z,94.11
2018-02-22T06:51:47.950Z,94.47
2018-02-22T06:54:16.971Z,93.81
2018-02-22T06:56:46.241Z,93.32
2018-02-22T06:59:15.386Z,93.71
2018-02-22T07:01:45.083Z,93.16
2018-02-22T07:04:14.262Z,92.83
2018-02-22T07:06:43.203Z,93.36
2018-02-22T07:09:12.362Z,93.34
2018-02-22T07:11:41.444Z,93.35
2018-02-22T07:14:10.810Z,93.94
2018-02-22T07:16:40.078Z,93.73
2018-02-22T07:19:09.190Z,93.74
2018-02-22T07:21:38.355Z,94.31
2018-02-22T07:24:07.578Z,93.59
2018-02-22T07:26:36.585Z,94.52
2018-02-22T07:29:05.922Z,93.93
2018-02-22T07:31:35.246Z,93.04
2018-02-22T07:34:04.414Z,93.14
2018-02-22T07:36:33.362Z,92.45
2018-02-22T07:39:02.421Z,93.52
2018-02-22T07:41:31.567Z,93.57
2018-02-22T07:44:00.941Z,93.96
2018-02-22T07:46:30.397Z,93.32
2018-02-22T07:48:59.685Z,93.76
2018-02-22T07:51:28.613Z,92.92
2018-02-22T07:53:58.005Z,93.28
2018-02-22T07:56:27.103Z,94.22
2018-02-22T07:58:56.066Z,93.97
2018-02-22T08:01:25.226Z,94.24
2018-02-22T08:03:54.353Z,93.30
2018-02-22T08:06:23.506Z,94.21
2018-02-22T08:08:52.834Z,94.40
2018-02-22T08:11:22.018Z,94.27
2018-02-22T08:13:51.651Z,94.71
2018-02-22T08:16:20.694Z,92.69
2018-02-22T08:18:50.106Z,93.74
2018-02-22T08:21:19.281Z,94.42
2018-02-22T08:23:48.611Z,94.48
2018-02-22T08:26:17.910Z,94.20
2018-02-22T08:28:47.146Z,93.80
2018-02-22T08:31:16.338Z,94.19
2018-02-22T08:33:45.342Z,92.76
2018-02-22T08:36:14.393Z,93.84
2018-02-22T08:38:43.812Z,93.23
2018-02-22T08:41:13.009Z,94.16
2018-02-22T08:43:42.436Z,93.77
2018-02-22T08:46:11.874Z,93.95
2018-02-22T08:48:41.450Z,93.95
2018-02-22T08:51:10.707Z,93.88
2018-02-22T08:53:40.006Z,92.68
2018-02-22T08:56:09.006Z,92.38
2018-02-22T08:58:38.305Z,92.21
2018-02-22T09:01:07.792Z,92.01
2018-02-22T09:03:37.009Z,93.53
2018-02-22T09:06:06.334Z,93.19
2018-02-22T09:08:35.401Z,91.20
2018-02-22T09:11:04.818Z,92.19
2018-02-22T09:13:34.122Z,92.76
2018-02-22T09:16:03.402Z,92.65
2018-02-22T09:18:33.126Z,92.25
2018-02-22T09:21:02.619Z,92.30
2018-02-22T09:23:31.904Z,94.41
2018-02-22T09:26:01.173Z,93.48
2018-02-22T09:28:30.279Z,93.25
2018-02-22T09:30:59.938Z,92.12
2018-02-22T09:33:29.165Z,93.11
2018-02-22T09:35:58.634Z,93.37
2018-02-22T09:38:28.354Z,93.14
2018-02-22T09:40:57.633Z,91.67
2018-02-22T09:43:26.938Z,91.75
2018-02-22T09:45:56.542Z,92.81
2018-02-22T09:48:26.195Z,93.55
2018-02-22T09:50:55.697Z,93.35
2018-02-22T09:53:24.938Z,93.87
2018-02-22T09:55:53.817Z,93.21
2018-02-22T09:58:23.387Z,93.30
2018-02-22T10:00:52.895Z,92.97
2018-02-22T10:03:22.490Z,93.25
2018-02-22T10:05:51.834Z,92.45
2018-02-22T10:08:21.070Z,92.88
2018-02-22T10:10:51.034Z,92.41
2018-02-22T10:13:20.183Z,91.95
2018-02-22T10:15:49.965Z,91.56
2018-02-22T10:18:19.184Z,90.51
2018-02-22T10:20:48.603Z,92.11
2018-02-22T10:23:18.262Z,91.12
2018-02-22T10:25:47.518Z,91.75
2018-02-22T10:28:17.371Z,91.95
2018-02-22T10:30:46.780Z,91.63
2018-02-22T10:33:15.869Z,91.67
2018-02-22T10:35:45.238Z,92.09
2018-02-22T10:38:14.565Z,93.45
2018-02-22T10:40:43.771Z,92.40
2018-02-22T10:43:13.101Z,91.86
2018-02-22T10:45:42.173Z,91.19
2018-02-22T10:48:11.616Z,93.25
2018-02-22T10:50:40.955Z,93.05
2018-02-22T10:53:10.112Z,92.28
2018-02-22T10:55:39.513Z,92.54
2018-02-22T10:58:08.397Z,92.58
2018-02-22T11:00:43.482Z,92.57
2018-02-22T11:03:12.871Z,92.07
2018-02-22T11:05:41.983Z,92.42
2018-02-22T11:08:11.147Z,92.61
2018-02-22T11:10:40.538Z,92.71
2018-02-22T11:13:09.848Z,91.04
2018-02-22T11:15:39.027Z,90.66
2018-02-22T11:18:08.266Z,90.11
2018-02-22T11:20:37.470Z,91.54
2018-02-22T11:23:07.379Z,91.71
2018-02-22T11:25:37.141Z,91.49
2018-02-22T11:28:06.268Z,91.11
2018-02-22T11:30:35.326Z,91.21
2018-02-22T11:33:04.542Z,91.36
2018-02-22T11:35:33.733Z,91.53
2018-02-22T11:38:02.900Z,91.58
2018-02-22T11:40:32.003Z,91.42
2018-02-22T11:43:01.194Z,91.26
2018-02-22T11:45:30.337Z,92.40
2018-02-22T11:47:59.781Z,90.76
2018-02-22T11:50:29.107Z,92.54
2018-02-22T11:52:58.486Z,92.86
2018-02-22T11:55:27.466Z,92.73
2018-02-22T11:57:56.378Z,91.54
2018-02-22T12:00:25.778Z,91.67
2018-02-22T12:02:54.771Z,93.94
2018-02-22T12:05:23.933Z,93.61
2018-02-22T12:07:53.083Z,93.10
2018-02-22T12:10:22.178Z,92.19
2018-02-22T12:12:51.254Z,92.11
2018-02-22T12:15:20.594Z,92.92
2018-02-22T12:17:50.307Z,93.44
2018-02-22T12:20:19.607Z,93.67
2018-02-22T12:22:49.344Z,92.75
2018-02-22T12:25:18.487Z,92.37
2018-02-22T12:27:48.038Z,93.04
2018-02-22T12:30:17.526Z,92.29
2018-02-22T12:32:46.726Z,91.54
2018-02-22T12:35:15.889Z,92.78
2018-02-22T12:37:44.954Z,92.78
2018-02-22T12:40:14.290Z,91.82
2018-02-22T12:42:43.317Z,90.68
2018-02-22T12:45:22.849Z,90.68
2018-02-22T12:47:57.287Z,90.39
2018-02-22T12:50:26.553Z,89.53
2018-02-22T12:52:55.878Z,90.34
2018-02-22T12:55:25.565Z,90.16
2018-02-22T12:57:54.855Z,91.00
2018-02-22T13:00:23.986Z,89.89
2018-02-22T13:02:53.818Z,91.23
2018-02-22T13:05:23.381Z,90.85
2018-02-22T13:07:52.829Z,91.47
2018-02-22T13:10:23.227Z,90.64
2018-02-22T13:12:52.638Z,90.62
2018-02-22T13:15:22.005Z,91.23
2018-02-22T13:17:51.364Z,90.44
2018-02-22T13:20:20.776Z,90.22
2018-02-22T13:22:50.422Z,90.58
2018-02-22T13:25:19.494Z,90.82
2018-02-22T13:27:48.725Z,89.56
2018-02-22T13:30:18.193Z,90.07
2018-02-22T13:32:58.682Z,90.15
2018-02-22T13:35:27.829Z,89.67
2018-02-22T13:38:17.103Z,89.70
2018-02-22T13:40:46.459Z,88.82
2018-02-22T13:43:15.795Z,89.09
2018-02-22T13:45:44.948Z,89.41
2018-02-22T13:48:14.361Z,88.75
2018-02-22T13:50:55.118Z,88.84
2018-02-22T13:53:24.262Z,89.43
2018-02-22T13:55:53.419Z,89.46
2018-02-22T13:58:22.290Z,89.64
2018-02-22T14:01:03.100Z,89.76
2018-02-22T14:03:32.576Z,89.41
2018-02-22T14:06:02.155Z,88.43
2018-02-22T14:08:43.366Z,88.51
2018-02-22T14:11:12.784Z,89.74
2018-02-22T14:13:41.674Z,87.84
2018-02-22T14:16:10.961Z,87.46
2018-02-22T14:18:40.189Z,89.50
2018-02-22T14:21:09.765Z,88.98
2018-02-22T14:23:39.305Z,88.94
2018-02-22T14:26:08.329Z,88.72
2018-02-22T14:28:37.497Z,88.10
2018-02-22T14:43:02.638Z,87.71
2018-02-22T14:45:35.015Z,87.54
2018-02-22T14:48:04.310Z,87.65
2018-02-22T14:50:34.471Z,88.17
2018-02-22T14:53:04.805Z,89.29
2018-02-22T14:55:34.243Z,88.42
2018-02-22T14:58:03.756Z,89.04
2018-02-22T15:00:32.961Z,89.14
2018-02-22T15:03:03.068Z,88.76
2018-02-22T15:05:32.321Z,89.20
2018-02-22T15:08:01.447Z,89.18
2018-02-22T15:10:30.790Z,90.03
2018-02-22T15:13:00.287Z,89.86
2018-02-22T15:15:29.167Z,90.02
2018-02-22T15:17:58.296Z,89.93
2018-02-22T15:20:27.170Z,90.24
2018-02-22T15:22:56.285Z,90.12
2018-02-22T15:25:25.592Z,90.55
2018-02-22T15:27:54.816Z,89.46
2018-02-22T15:30:24.030Z,90.41
2018-02-22T15:32:53.381Z,90.14
2018-02-22T15:35:22.797Z,90.54
2018-02-22T15:37:52.382Z,90.38
2018-02-22T15:40:21.542Z,89.88
2018-02-22T15:42:51.084Z,90.30
2018-02-22T15:45:25.326Z,90.16
2018-02-22T15:47:56.223Z,89.61
2018-02-22T15:50:25.745Z,88.76
2018-02-22T15:52:55.641Z,89.72
2018-02-22T15:55:25.194Z,89.55
2018-02-22T15:57:55.323Z,90.55
2018-02-22T16:00:24.906Z,90.23
2018-02-22T16:02:55.520Z,90.55
2018-02-22T16:05:25.317Z,89.54
2018-02-22T16:07:55.182Z,90.78
2018-02-22T16:10:24.782Z,90.59
2018-02-22T16:12:54.966Z,89.88
2018-02-22T16:15:24.804Z,90.55
2018-02-22T16:17:54.575Z,90.32
2018-02-22T16:20:41.516Z,89.15
2018-02-22T16:23:11.163Z,89.01
2018-02-22T16:25:40.938Z,88.97
2018-02-22T16:28:10.332Z,90.02
2018-02-22T16:30:39.668Z,89.58
2018-02-22T16:33:09.302Z,89.99
2018-02-22T16:35:38.586Z,89.30
2018-02-22T16:38:08.175Z,90.04
2018-02-22T16:40:37.562Z,90.56
2018-02-22T16:43:06.911Z,90.59
2018-02-22T16:45:36.036Z,89.89
2018-02-22T16:48:05.050Z,89.87
2018-02-22T16:50:34.593Z,89.95
2018-02-22T16:53:03.950Z,89.42
2018-02-22T16:55:33.072Z,89.00
2018-02-22T16:58:02.185Z,90.73
2018-02-22T17:00:31.471Z,88.58
2018-02-22T17:03:00.764Z,89.56
2018-02-22T17:05:30.064Z,90.15
2018-02-22T17:07:59.358Z,89.52
2018-02-22T17:10:28.449Z,90.00
2018-02-22T17:12:57.566Z,88.92
2018-02-22T17:15:26.520Z,89.80
2018-02-22T17:17:55.747Z,89.32
2018-02-22T17:20:24.778Z,89.55
2018-02-22T17:22:53.646Z,90.25
2018-02-22T17:25:22.123Z,89.75
2018-02-22T17:27:57.243Z,89.29
2018-02-22T17:30:31.973Z,89.72
2018-02-22T17:33:01.026Z,89.70
2018-02-22T17:38:43.295Z,89.75
2018-02-22T17:41:12.616Z,89.94
2018-02-22T17:43:41.714Z,89.96
2018-02-22T17:46:10.751Z,89.66
2018-02-22T17:48:39.850Z,89.70
2018-02-22T17:51:08.942Z,89.05
2018-02-22T17:53:38.238Z,90.23
2018-02-22T17:56:07.673Z,89.20
2018-02-22T17:58:36.953Z,88.19
2018-02-22T18:01:06.387Z,89.89
2018-02-22T18:03:35.394Z,88.26
2018-02-22T18:06:04.395Z,88.23
2018-02-22T18:08:33.340Z,88.51
2018-02-22T18:11:02.438Z,87.13
2018-02-22T18:13:33.999Z,88.94
2018-02-22T18:16:03.142Z,88.06
2018-02-22T18:18:32.377Z,88.80
2018-02-22T18:21:01.454Z,89.70
2018-02-22T18:23:30.698Z,88.36
2018-02-22T18:25:59.813Z,88.87
2018-02-22T18:28:29.167Z,88.50
2018-02-22T18:30:58.365Z,88.71
2018-02-22T18:33:27.302Z,88.49
2018-02-22T18:35:56.244Z,88.49
2018-02-22T18:38:25.347Z,88.00
2018-02-22T18:40:59.537Z,88.45
2018-02-22T18:43:34.548Z,88.62
2018-02-22T18:46:03.663Z,88.83
2018-02-22T18:48:33.100Z,88.01
2018-02-22T18:51:02.333Z,89.38
2018-02-22T18:53:31.506Z,89.53
2018-02-22T18:56:01.294Z,89.08
2018-02-22T18:58:30.294Z,89.17
2018-02-22T19:00:59.425Z,87.78
2018-02-22T19:03:28.895Z,87.02
2018-02-22T19:05:57.946Z,89.07
2018-02-22T19:08:26.998Z,88.99
2018-02-22T19:10:56.062Z,87.61
2018-02-22T19:13:25.038Z,88.50
2018-02-22T19:15:54.156Z,86.84
2018-02-22T19:18:23.246Z,86.05
2018-02-22T19:20:52.229Z,87.99
2018-02-22T19:23:21.139Z,87.62
2018-02-22T19:25:50.171Z,88.17
2018-02-22T19:28:19.381Z,87.47
2018-02-22T19:30:48.423Z,87.89
2018-02-22T19:33:17.502Z,88.92
2018-02-22T19:35:46.455Z,88.25
2018-02-22T19:38:15.541Z,89.27
2018-02-22T19:40:44.843Z,90.22
2018-02-22T19:43:14.044Z,89.71
2018-02-22T19:45:43.385Z,88.98
2018-02-22T19:48:12.442Z,88.68
2018-02-22T19:50:41.760Z,89.59
2018-02-22T19:53:10.771Z,91.09
2018-02-22T19:55:40.156Z,91.53
2018-02-22T19:58:09.017Z,91.41
2018-02-22T20:00:38.038Z,91.61
2018-02-22T20:03:07.290Z,91.52
2018-02-22T20:05:36.731Z,90.71
2018-02-22T20:08:05.981Z,91.14
2018-02-22T20:10:35.435Z,90.03
2018-02-22T20:13:04.594Z,90.77
2018-02-22T20:15:33.813Z,91.45
2018-02-22T20:18:02.990Z,90.07
2018-02-22T20:20:32.127Z,89.96
2018-02-22T20:23:01.471Z,90.42
2018-02-22T20:25:31.148Z,89.85
2018-02-22T20:28:00.340Z,90.71
2018-02-22T20:30:29.174Z,91.10
2018-02-22T20:32:58.630Z,90.50
2018-02-22T20:35:27.934Z,89.51
2018-02-22T20:37:57.093Z,90.39
2018-02-22T20:40:26.253Z,91.41
2018-02-22T20:42:55.521Z,91.87
2018-02-22T20:45:24.823Z,91.41
2018-02-22T20:47:54.236Z,90.94
2018-02-22T20:50:23.728Z,90.53
2018-02-22T20:55:54.990Z,91.14
2018-02-22T20:58:24.490Z,90.65
2018-02-22T21:00:53.673Z,90.93
2018-02-22T21:03:23.930Z,91.13
2018-02-22T21:05:52.929Z,91.91
2018-02-22T21:08:22.143Z,91.74
2018-02-22T21:10:51.224Z,91.10
2018-02-22T21:13:20.629Z,90.77
2018-02-22T21:15:50.018Z,90.35
2018-02-22T21:18:19.432Z,90.66
2018-02-22T21:20:48.570Z,91.08
2018-02-22T21:23:17.982Z,89.98
2018-02-22T21:25:47.440Z,90.97
2018-02-22T21:28:16.450Z,90.52
2018-02-22T21:30:45.718Z,89.86
2018-02-22T21:33:15.052Z,89.33
2018-02-22T21:35:44.129Z,89.75
2018-02-22T21:38:13.309Z,89.36
2018-02-22T21:40:42.520Z,90.53
2018-02-22T21:43:11.773Z,90.42
2018-02-22T21:45:40.593Z,90.08
2018-02-22T21:48:09.625Z,90.17
2018-02-22T21:50:38.989Z,90.71
2018-02-22T21:53:08.433Z,89.97
2018-02-22T21:55:37.465Z,89.21
2018-02-22T21:58:06.938Z,89.26
2018-02-22T22:00:36.302Z,89.84
2018-02-22T22:03:05.581Z,90.03
2018-02-22T22:05:34.903Z,89.53
2018-02-22T22:08:03.878Z,89.80
2018-02-22T22:10:32.957Z,90.14
2018-02-22T22:13:02.071Z,88.67
2018-02-22T22:15:31.386Z,88.77
2018-02-22T22:18:00.912Z,88.50
2018-02-22T22:20:29.834Z,87.74
2018-02-22T22:22:58.718Z,89.20
2018-02-22T22:25:27.850Z,89.82
2018-02-22T22:27:57.488Z,88.88
2018-02-22T22:30:26.990Z,89.23
2018-02-22T22:32:56.555Z,88.92
2018-02-22T22:35:26.547Z,88.00
2018-02-22T22:37:55.837Z,87.65
2018-02-22T22:40:25.313Z,86.75
2018-02-22T22:42:54.362Z,86.52
2018-02-22T22:45:23.849Z,88.35
2018-02-22T22:47:53.051Z,86.66
2018-02-22T22:50:22.073Z,87.70
2018-02-22T22:52:51.183Z,86.94
2018-02-22T22:55:20.590Z,86.01
2018-02-22T22:57:49.911Z,86.63
2018-02-22T23:00:23.585Z,87.28
2018-02-22T23:02:52.911Z,87.27
2018-02-22T23:05:22.047Z,86.70
2018-02-22T23:07:51.097Z,86.72
2018-02-22T23:10:20.194Z,87.00
2018-02-22T23:12:49.509Z,86.41
2018-02-22T23:15:18.733Z,86.44
2018-02-22T23:17:47.702Z,87.01
2018-02-22T23:20:16.579Z,88.08
2018-02-22T23:22:45.598Z,88.41
2018-02-22T23:25:14.877Z,88.42
2018-02-22T23:27:43.981Z,86.98
2018-02-22T23:30:13.047Z,87.91
2018-02-22T23:32:42.386Z,88.65
2018-02-22T23:35:11.769Z,88.26
2018-02-22T23:37:40.817Z,88.44
2018-02-22T23:40:13.432Z,88.82
2018-02-22T23:42:42.745Z,87.61
2018-02-22T23:45:11.942Z,88.97
2018-02-22T23:47:41.963Z,88.45
2018-02-22T23:50:10.986Z,87.99
2018-02-22T23:52:40.458Z,89.56
2018-02-22T23:55:09.597Z,89.34
2018-02-22T23:57:39.677Z,89.75
